Kezdőlap
METAR-TAF:

METAR-TAF

Repülőterek :

Waterbury-Oxford Airport

Oxford, Connecticut, Amerikai Egyesült Államok

földrajzi szélesség: 41-29N, földrajzi hosszúság: 073-08W, magasság: 222 m

Jelenlegi meteorológiai megfigyelések

A jelentés 18 perccel ezelõtt készült, 12:01 UTC
Dél-délnyugati szél 3 kt
Hőmérséklet 20°C
Páratartalom 100%
Légköri nyomás 1010 hPa
Látótávolság: 4.0 km
Borult 100 lábon
Párásság

METAR: KOXC 061201Z 20003KT 2 1/2SM BR OVC001 20/20 A2982 RMK AO2

Idő: 08:19 (12:19 UTC)


TAF: hiányzik

Meteorológiai megfigyelések és előrejelzések több, mint 4000 repülőtéren (METAR és TAF jelentéseket).

A térképen piros és sárga pontok jelzik az elérhető meteorológiai állomásokat.

Mozgassa az egeret a pont fölött, hogy megjelenjen az állomás neve.

Azután kattintson az időjárási megfigyelések és előrejelzések megtekintéséhez.

A térkép megváltoztatása: kattintson a fekete keresztel jelölt zöld gombra ráközelítéshez, a vonallal jelölt zöld gombra távolításhoz, vagy a zöld nyilakra a szomszédos térképek eléréséhez.


METAR-TAF: